sensor_id;sensor_type;location;lat;lon;timestamp;P1;durP1;ratioP1;P2;durP2;ratioP2
39750;SDS011;37579;51.074;17.004;2023-09-30T00:00:44;2.42;;;2.03;;
39750;SDS011;37579;51.074;17.004;2023-09-30T00:03:10;2.38;;;2.10;;
39750;SDS011;37579;51.074;17.004;2023-09-30T00:05:36;2.20;;;2.00;;
39750;SDS011;37579;51.074;17.004;2023-09-30T00:08:03;1.73;;;1.63;;
39750;SDS011;37579;51.074;17.004;2023-09-30T00:10:29;2.08;;;1.88;;
39750;SDS011;37579;51.074;17.004;2023-09-30T00:12:55;2.30;;;2.00;;
39750;SDS011;37579;51.074;17.004;2023-09-30T00:15:22;2.40;;;2.10;;
39750;SDS011;37579;51.074;17.004;2023-09-30T00:17:48;1.67;;;1.58;;
39750;SDS011;37579;51.074;17.004;2023-09-30T00:20:14;2.10;;;1.80;;
39750;SDS011;37579;51.074;17.004;2023-09-30T00:22:40;2.65;;;1.90;;
39750;SDS011;37579;51.074;17.004;2023-09-30T00:25:06;2.00;;;1.80;;
39750;SDS011;37579;51.074;17.004;2023-09-30T00:27:32;2.08;;;1.88;;
39750;SDS011;37579;51.074;17.004;2023-09-30T00:29:58;2.17;;;1.65;;
39750;SDS011;37579;51.074;17.004;2023-09-30T00:32:24;2.17;;;1.98;;
39750;SDS011;37579;51.074;17.004;2023-09-30T00:34:50;2.50;;;1.98;;
39750;SDS011;37579;51.074;17.004;2023-09-30T00:37:17;1.92;;;1.77;;
39750;SDS011;37579;51.074;17.004;2023-09-30T00:39:43;1.63;;;1.52;;
39750;SDS011;37579;51.074;17.004;2023-09-30T00:42:10;1.60;;;1.50;;
39750;SDS011;37579;51.074;17.004;2023-09-30T00:44:36;2.28;;;2.08;;
39750;SDS011;37579;51.074;17.004;2023-09-30T00:47:01;2.17;;;1.95;;
39750;SDS011;37579;51.074;17.004;2023-09-30T00:49:28;2.00;;;1.80;;
39750;SDS011;37579;51.074;17.004;2023-09-30T00:51:55;2.28;;;2.00;;
39750;SDS011;37579;51.074;17.004;2023-09-30T00:54:21;2.78;;;1.70;;
39750;SDS011;37579;51.074;17.004;2023-09-30T00:56:50;2.55;;;2.17;;
39750;SDS011;37579;51.074;17.004;2023-09-30T00:59:17;1.75;;;1.65;;
39750;SDS011;37579;51.074;17.004;2023-09-30T01:01:45;2.10;;;1.90;;
39750;SDS011;37579;51.074;17.004;2023-09-30T01:04:11;2.78;;;1.65;;
39750;SDS011;37579;51.074;17.004;2023-09-30T01:06:38;1.80;;;1.70;;
39750;SDS011;37579;51.074;17.004;2023-09-30T01:09:04;1.90;;;1.80;;
39750;SDS011;37579;51.074;17.004;2023-09-30T01:11:30;1.92;;;1.70;;
39750;SDS011;37579;51.074;17.004;2023-09-30T01:13:56;1.92;;;1.73;;
39750;SDS011;37579;51.074;17.004;2023-09-30T01:16:22;2.10;;;1.90;;
39750;SDS011;37579;51.074;17.004;2023-09-30T01:18:49;2.83;;;1.65;;
39750;SDS011;37579;51.074;17.004;2023-09-30T01:21:15;1.90;;;1.70;;
39750;SDS011;37579;51.074;17.004;2023-09-30T01:23:41;2.05;;;1.75;;
39750;SDS011;37579;51.074;17.004;2023-09-30T01:26:09;2.40;;;2.17;;
39750;SDS011;37579;51.074;17.004;2023-09-30T01:28:37;2.10;;;1.83;;
39750;SDS011;37579;51.074;17.004;2023-09-30T01:31:04;2.20;;;1.80;;
39750;SDS011;37579;51.074;17.004;2023-09-30T01:33:30;2.00;;;1.80;;
39750;SDS011;37579;51.074;17.004;2023-09-30T01:35:57;2.65;;;2.00;;
39750;SDS011;37579;51.074;17.004;2023-09-30T01:38:24;1.95;;;1.75;;
39750;SDS011;37579;51.074;17.004;2023-09-30T01:40:50;2.10;;;1.90;;
39750;SDS011;37579;51.074;17.004;2023-09-30T01:43:16;2.35;;;1.77;;
39750;SDS011;37579;51.074;17.004;2023-09-30T01:45:43;1.75;;;1.65;;
39750;SDS011;37579;51.074;17.004;2023-09-30T01:48:09;2.13;;;1.88;;
39750;SDS011;37579;51.074;17.004;2023-09-30T01:50:39;1.80;;;1.70;;
39750;SDS011;37579;51.074;17.004;2023-09-30T01:53:05;2.10;;;1.75;;
39750;SDS011;37579;51.074;17.004;2023-09-30T01:55:34;2.05;;;1.85;;
39750;SDS011;37579;51.074;17.004;2023-09-30T01:58:02;2.53;;;1.60;;
39750;SDS011;37579;51.074;17.004;2023-09-30T02:00:28;2.00;;;1.80;;
39750;SDS011;37579;51.074;17.004;2023-09-30T02:02:54;2.17;;;1.98;;
39750;SDS011;37579;51.074;17.004;2023-09-30T02:05:21;1.98;;;1.77;;
39750;SDS011;37579;51.074;17.004;2023-09-30T02:07:49;1.85;;;1.70;;
39750;SDS011;37579;51.074;17.004;2023-09-30T02:10:15;1.98;;;1.80;;
39750;SDS011;37579;51.074;17.004;2023-09-30T02:12:44;1.80;;;1.70;;
39750;SDS011;37579;51.074;17.004;2023-09-30T02:15:11;2.22;;;1.90;;
39750;SDS011;37579;51.074;17.004;2023-09-30T02:17:37;2.10;;;1.90;;
39750;SDS011;37579;51.074;17.004;2023-09-30T02:20:03;2.42;;;1.98;;
39750;SDS011;37579;51.074;17.004;2023-09-30T02:22:32;1.98;;;1.88;;
39750;SDS011;37579;51.074;17.004;2023-09-30T02:24:58;2.00;;;1.90;;
39750;SDS011;37579;51.074;17.004;2023-09-30T02:27:25;2.08;;;1.88;;
39750;SDS011;37579;51.074;17.004;2023-09-30T02:29:50;1.88;;;1.60;;
39750;SDS011;37579;51.074;17.004;2023-09-30T02:32:16;1.88;;;1.77;;
39750;SDS011;37579;51.074;17.004;2023-09-30T02:34:42;1.70;;;1.60;;
39750;SDS011;37579;51.074;17.004;2023-09-30T02:37:09;1.90;;;1.70;;
39750;SDS011;37579;51.074;17.004;2023-09-30T02:39:35;1.92;;;1.80;;
39750;SDS011;37579;51.074;17.004;2023-09-30T02:42:02;2.00;;;1.80;;
39750;SDS011;37579;51.074;17.004;2023-09-30T02:44:28;1.83;;;1.63;;
39750;SDS011;37579;51.074;17.004;2023-09-30T02:46:55;1.90;;;1.80;;
39750;SDS011;37579;51.074;17.004;2023-09-30T02:49:21;1.60;;;1.50;;
39750;SDS011;37579;51.074;17.004;2023-09-30T02:51:47;1.92;;;1.83;;
39750;SDS011;37579;51.074;17.004;2023-09-30T02:54:12;2.00;;;1.80;;
39750;SDS011;37579;51.074;17.004;2023-09-30T02:56:41;2.63;;;1.98;;
39750;SDS011;37579;51.074;17.004;2023-09-30T02:59:08;1.60;;;1.50;;
39750;SDS011;37579;51.074;17.004;2023-09-30T03:01:34;1.80;;;1.63;;
39750;SDS011;37579;51.074;17.004;2023-09-30T03:03:59;2.25;;;2.05;;
39750;SDS011;37579;51.074;17.004;2023-09-30T03:06:25;2.10;;;1.70;;
39750;SDS011;37579;51.074;17.004;2023-09-30T03:08:51;1.98;;;1.70;;
39750;SDS011;37579;51.074;17.004;2023-09-30T03:11:17;2.00;;;1.73;;
39750;SDS011;37579;51.074;17.004;2023-09-30T03:13:45;2.10;;;1.65;;
39750;SDS011;37579;51.074;17.004;2023-09-30T03:16:11;1.77;;;1.60;;
39750;SDS011;37579;51.074;17.004;2023-09-30T03:18:37;2.38;;;1.70;;
39750;SDS011;37579;51.074;17.004;2023-09-30T03:21:03;1.73;;;1.63;;
39750;SDS011;37579;51.074;17.004;2023-09-30T03:23:39;2.05;;;1.85;;
39750;SDS011;37579;51.074;17.004;2023-09-30T03:26:05;1.40;;;1.30;;
39750;SDS011;37579;51.074;17.004;2023-09-30T03:28:35;2.00;;;1.52;;
39750;SDS011;37579;51.074;17.004;2023-09-30T03:31:02;1.75;;;1.65;;
39750;SDS011;37579;51.074;17.004;2023-09-30T03:33:30;1.67;;;1.58;;
39750;SDS011;37579;51.074;17.004;2023-09-30T03:35:59;1.60;;;1.48;;
39750;SDS011;37579;51.074;17.004;2023-09-30T03:38:25;1.73;;;1.63;;
39750;SDS011;37579;51.074;17.004;2023-09-30T03:40:51;1.77;;;1.55;;
39750;SDS011;37579;51.074;17.004;2023-09-30T03:43:20;1.60;;;1.50;;
39750;SDS011;37579;51.074;17.004;2023-09-30T03:45:46;1.60;;;1.45;;
39750;SDS011;37579;51.074;17.004;2023-09-30T03:48:12;2.03;;;1.77;;
39750;SDS011;37579;51.074;17.004;2023-09-30T03:50:38;1.65;;;1.40;;
39750;SDS011;37579;51.074;17.004;2023-09-30T03:53:04;2.10;;;1.90;;
39750;SDS011;37579;51.074;17.004;2023-09-30T03:55:33;2.00;;;1.80;;
39750;SDS011;37579;51.074;17.004;2023-09-30T03:57:59;1.38;;;1.27;;
39750;SDS011;37579;51.074;17.004;2023-09-30T04:00:25;1.60;;;1.50;;
39750;SDS011;37579;51.074;17.004;2023-09-30T04:02:51;1.70;;;1.60;;
39750;SDS011;37579;51.074;17.004;2023-09-30T04:05:23;1.90;;;1.80;;
39750;SDS011;37579;51.074;17.004;2023-09-30T04:07:57;1.70;;;1.60;;
39750;SDS011;37579;51.074;17.004;2023-09-30T04:10:23;1.65;;;1.50;;
39750;SDS011;37579;51.074;17.004;2023-09-30T04:12:49;1.60;;;1.50;;
39750;SDS011;37579;51.074;17.004;2023-09-30T04:15:14;1.70;;;1.60;;
39750;SDS011;37579;51.074;17.004;2023-09-30T04:17:40;2.63;;;1.85;;
39750;SDS011;37579;51.074;17.004;2023-09-30T04:20:07;1.75;;;1.65;;
39750;SDS011;37579;51.074;17.004;2023-09-30T04:22:35;1.52;;;1.40;;
39750;SDS011;37579;51.074;17.004;2023-09-30T04:25:02;2.10;;;1.80;;
39750;SDS011;37579;51.074;17.004;2023-09-30T04:27:34;2.15;;;1.80;;
39750;SDS011;37579;51.074;17.004;2023-09-30T04:30:01;1.75;;;1.65;;
39750;SDS011;37579;51.074;17.004;2023-09-30T04:35:02;1.98;;;1.60;;
39750;SDS011;37579;51.074;17.004;2023-09-30T04:37:29;1.80;;;1.67;;
39750;SDS011;37579;51.074;17.004;2023-09-30T04:39:55;1.75;;;1.65;;
39750;SDS011;37579;51.074;17.004;2023-09-30T04:42:21;2.10;;;1.77;;
39750;SDS011;37579;51.074;17.004;2023-09-30T04:44:46;1.60;;;1.50;;
39750;SDS011;37579;51.074;17.004;2023-09-30T04:47:12;1.38;;;1.27;;
39750;SDS011;37579;51.074;17.004;2023-09-30T04:49:38;1.60;;;1.50;;
39750;SDS011;37579;51.074;17.004;2023-09-30T04:52:03;2.28;;;2.05;;
39750;SDS011;37579;51.074;17.004;2023-09-30T04:54:32;1.52;;;1.42;;
39750;SDS011;37579;51.074;17.004;2023-09-30T04:57:00;1.63;;;1.50;;
39750;SDS011;37579;51.074;17.004;2023-09-30T04:59:27;1.42;;;1.33;;
39750;SDS011;37579;51.074;17.004;2023-09-30T05:01:53;1.70;;;1.60;;
39750;SDS011;37579;51.074;17.004;2023-09-30T05:04:19;1.88;;;1.77;;
39750;SDS011;37579;51.074;17.004;2023-09-30T05:06:45;2.35;;;1.67;;
39750;SDS011;37579;51.074;17.004;2023-09-30T05:09:11;1.58;;;1.40;;
39750;SDS011;37579;51.074;17.004;2023-09-30T05:11:37;1.58;;;1.48;;
39750;SDS011;37579;51.074;17.004;2023-09-30T05:14:03;1.95;;;1.50;;
39750;SDS011;37579;51.074;17.004;2023-09-30T05:16:30;1.85;;;1.60;;
39750;SDS011;37579;51.074;17.004;2023-09-30T05:18:57;1.63;;;1.50;;
39750;SDS011;37579;51.074;17.004;2023-09-30T05:21:22;1.63;;;1.40;;
39750;SDS011;37579;51.074;17.004;2023-09-30T05:23:48;1.70;;;1.38;;
39750;SDS011;37579;51.074;17.004;2023-09-30T05:26:14;1.98;;;1.80;;
39750;SDS011;37579;51.074;17.004;2023-09-30T05:28:41;1.75;;;1.65;;
39750;SDS011;37579;51.074;17.004;2023-09-30T05:31:08;1.52;;;1.30;;
39750;SDS011;37579;51.074;17.004;2023-09-30T05:33:34;1.83;;;1.50;;
39750;SDS011;37579;51.074;17.004;2023-09-30T05:36:01;1.85;;;1.73;;
39750;SDS011;37579;51.074;17.004;2023-09-30T05:38:28;1.95;;;1.60;;
39750;SDS011;37579;51.074;17.004;2023-09-30T05:40:56;1.50;;;1.40;;
39750;SDS011;37579;51.074;17.004;2023-09-30T05:43:24;1.67;;;1.30;;
39750;SDS011;37579;51.074;17.004;2023-09-30T05:45:50;1.60;;;1.42;;
39750;SDS011;37579;51.074;17.004;2023-09-30T05:48:22;1.42;;;1.33;;
39750;SDS011;37579;51.074;17.004;2023-09-30T05:50:48;2.00;;;1.50;;
39750;SDS011;37579;51.074;17.004;2023-09-30T05:53:14;2.00;;;1.80;;
39750;SDS011;37579;51.074;17.004;2023-09-30T05:55:40;2.00;;;1.80;;
39750;SDS011;37579;51.074;17.004;2023-09-30T05:58:12;1.70;;;1.60;;
39750;SDS011;37579;51.074;17.004;2023-09-30T06:00:39;1.75;;;1.48;;
39750;SDS011;37579;51.074;17.004;2023-09-30T06:03:07;1.70;;;1.50;;
39750;SDS011;37579;51.074;17.004;2023-09-30T06:05:33;1.80;;;1.60;;
39750;SDS011;37579;51.074;17.004;2023-09-30T06:08:04;1.70;;;1.50;;
39750;SDS011;37579;51.074;17.004;2023-09-30T06:10:30;1.83;;;1.20;;
39750;SDS011;37579;51.074;17.004;2023-09-30T06:12:56;1.48;;;1.38;;
39750;SDS011;37579;51.074;17.004;2023-09-30T06:15:26;1.55;;;1.35;;
39750;SDS011;37579;51.074;17.004;2023-09-30T06:17:52;2.08;;;1.42;;
39750;SDS011;37579;51.074;17.004;2023-09-30T06:20:19;1.90;;;1.50;;
39750;SDS011;37579;51.074;17.004;2023-09-30T06:22:47;1.48;;;1.38;;
39750;SDS011;37579;51.074;17.004;2023-09-30T06:25:17;1.48;;;1.38;;
39750;SDS011;37579;51.074;17.004;2023-09-30T06:27:43;1.67;;;1.58;;
39750;SDS011;37579;51.074;17.004;2023-09-30T06:30:10;1.50;;;1.40;;
39750;SDS011;37579;51.074;17.004;2023-09-30T06:32:37;1.50;;;1.33;;
39750;SDS011;37579;51.074;17.004;2023-09-30T06:35:03;1.63;;;1.38;;
39750;SDS011;37579;51.074;17.004;2023-09-30T06:37:31;1.55;;;1.45;;
39750;SDS011;37579;51.074;17.004;2023-09-30T06:39:59;1.58;;;1.48;;
39750;SDS011;37579;51.074;17.004;2023-09-30T06:42:29;1.67;;;1.50;;
39750;SDS011;37579;51.074;17.004;2023-09-30T06:44:55;1.55;;;1.40;;
39750;SDS011;37579;51.074;17.004;2023-09-30T06:47:20;1.55;;;1.40;;
39750;SDS011;37579;51.074;17.004;2023-09-30T06:49:47;1.65;;;1.55;;
39750;SDS011;37579;51.074;17.004;2023-09-30T06:52:13;1.35;;;1.20;;
39750;SDS011;37579;51.074;17.004;2023-09-30T06:54:38;1.60;;;1.40;;
39750;SDS011;37579;51.074;17.004;2023-09-30T06:57:04;1.95;;;1.70;;
39750;SDS011;37579;51.074;17.004;2023-09-30T06:59:31;2.08;;;1.77;;
39750;SDS011;37579;51.074;17.004;2023-09-30T07:01:57;1.65;;;1.50;;
39750;SDS011;37579;51.074;17.004;2023-09-30T07:04:23;1.50;;;1.35;;
39750;SDS011;37579;51.074;17.004;2023-09-30T07:06:52;2.10;;;1.25;;
39750;SDS011;37579;51.074;17.004;2023-09-30T07:09:18;1.35;;;1.25;;
39750;SDS011;37579;51.074;17.004;2023-09-30T07:11:45;1.50;;;1.40;;
39750;SDS011;37579;51.074;17.004;2023-09-30T07:14:11;1.75;;;1.20;;
39750;SDS011;37579;51.074;17.004;2023-09-30T07:16:37;1.65;;;1.38;;
39750;SDS011;37579;51.074;17.004;2023-09-30T07:19:04;1.73;;;1.40;;
39750;SDS011;37579;51.074;17.004;2023-09-30T07:21:30;1.63;;;1.48;;
39750;SDS011;37579;51.074;17.004;2023-09-30T07:23:56;1.50;;;1.40;;
39750;SDS011;37579;51.074;17.004;2023-09-30T07:26:25;1.13;;;1.02;;
39750;SDS011;37579;51.074;17.004;2023-09-30T07:28:51;1.20;;;1.10;;
39750;SDS011;37579;51.074;17.004;2023-09-30T07:31:19;1.80;;;1.52;;
39750;SDS011;37579;51.074;17.004;2023-09-30T07:33:45;1.25;;;1.15;;
39750;SDS011;37579;51.074;17.004;2023-09-30T07:36:13;1.48;;;1.27;;
39750;SDS011;37579;51.074;17.004;2023-09-30T07:38:39;1.10;;;1.00;;
39750;SDS011;37579;51.074;17.004;2023-09-30T07:41:05;1.50;;;1.20;;
39750;SDS011;37579;51.074;17.004;2023-09-30T07:43:31;1.25;;;1.15;;
39750;SDS011;37579;51.074;17.004;2023-09-30T07:45:57;1.42;;;1.30;;
39750;SDS011;37579;51.074;17.004;2023-09-30T07:48:23;2.05;;;1.50;;
39750;SDS011;37579;51.074;17.004;2023-09-30T07:51:08;1.33;;;1.23;;
39750;SDS011;37579;51.074;17.004;2023-09-30T07:53:38;1.48;;;1.38;;
39750;SDS011;37579;51.074;17.004;2023-09-30T07:56:05;1.92;;;1.25;;
39750;SDS011;37579;51.074;17.004;2023-09-30T07:58:31;1.45;;;1.25;;
39750;SDS011;37579;51.074;17.004;2023-09-30T08:00:58;1.40;;;1.23;;
39750;SDS011;37579;51.074;17.004;2023-09-30T08:03:24;1.58;;;1.20;;
39750;SDS011;37579;51.074;17.004;2023-09-30T08:05:49;1.60;;;1.23;;
39750;SDS011;37579;51.074;17.004;2023-09-30T08:08:16;1.35;;;1.20;;
39750;SDS011;37579;51.074;17.004;2023-09-30T08:10:42;1.30;;;1.20;;
39750;SDS011;37579;51.074;17.004;2023-09-30T08:13:08;1.33;;;1.20;;
39750;SDS011;37579;51.074;17.004;2023-09-30T08:15:34;1.40;;;1.20;;
39750;SDS011;37579;51.074;17.004;2023-09-30T08:18:00;1.23;;;1.02;;
39750;SDS011;37579;51.074;17.004;2023-09-30T08:20:29;1.60;;;1.30;;
39750;SDS011;37579;51.074;17.004;2023-09-30T08:22:55;1.45;;;1.10;;
39750;SDS011;37579;51.074;17.004;2023-09-30T08:25:21;1.35;;;1.25;;
39750;SDS011;37579;51.074;17.004;2023-09-30T08:27:47;1.40;;;1.08;;
39750;SDS011;37579;51.074;17.004;2023-09-30T08:30:15;1.90;;;1.30;;
39750;SDS011;37579;51.074;17.004;2023-09-30T08:32:41;1.10;;;1.00;;
39750;SDS011;37579;51.074;17.004;2023-09-30T08:35:06;1.40;;;1.30;;
39750;SDS011;37579;51.074;17.004;2023-09-30T08:37:33;1.55;;;1.10;;
39750;SDS011;37579;51.074;17.004;2023-09-30T08:39:59;1.50;;;1.23;;
39750;SDS011;37579;51.074;17.004;2023-09-30T08:42:25;1.40;;;1.30;;
39750;SDS011;37579;51.074;17.004;2023-09-30T08:47:26;1.17;;;0.95;;
39750;SDS011;37579;51.074;17.004;2023-09-30T08:49:59;1.23;;;1.13;;
39750;SDS011;37579;51.074;17.004;2023-09-30T08:52:34;1.27;;;1.10;;
39750;SDS011;37579;51.074;17.004;2023-09-30T08:55:00;1.40;;;1.25;;
39750;SDS011;37579;51.074;17.004;2023-09-30T08:57:26;1.42;;;1.10;;
39750;SDS011;37579;51.074;17.004;2023-09-30T08:59:54;1.35;;;1.10;;
39750;SDS011;37579;51.074;17.004;2023-09-30T09:02:20;1.40;;;1.30;;
39750;SDS011;37579;51.074;17.004;2023-09-30T09:04:46;1.10;;;1.00;;
39750;SDS011;37579;51.074;17.004;2023-09-30T09:07:12;1.30;;;1.10;;
39750;SDS011;37579;51.074;17.004;2023-09-30T09:09:38;1.60;;;1.10;;
39750;SDS011;37579;51.074;17.004;2023-09-30T09:12:04;1.20;;;1.05;;
39750;SDS011;37579;51.074;17.004;2023-09-30T09:14:36;1.52;;;1.20;;
39750;SDS011;37579;51.074;17.004;2023-09-30T09:17:05;1.98;;;1.42;;
39750;SDS011;37579;51.074;17.004;2023-09-30T09:19:32;1.20;;;1.10;;
39750;SDS011;37579;51.074;17.004;2023-09-30T09:22:00;1.27;;;1.10;;
39750;SDS011;37579;51.074;17.004;2023-09-30T09:24:27;1.60;;;1.23;;
39750;SDS011;37579;51.074;17.004;2023-09-30T09:27:03;1.10;;;1.00;;
39750;SDS011;37579;51.074;17.004;2023-09-30T09:29:41;1.85;;;0.98;;
39750;SDS011;37579;51.074;17.004;2023-09-30T09:32:13;1.05;;;0.95;;
39750;SDS011;37579;51.074;17.004;2023-09-30T09:34:40;1.10;;;1.00;;
39750;SDS011;37579;51.074;17.004;2023-09-30T09:37:18;1.10;;;1.00;;
39750;SDS011;37579;51.074;17.004;2023-09-30T09:44:55;1.45;;;1.25;;
39750;SDS011;37579;51.074;17.004;2023-09-30T09:47:23;1.20;;;1.00;;
39750;SDS011;37579;51.074;17.004;2023-09-30T09:49:52;1.35;;;1.10;;
39750;SDS011;37579;51.074;17.004;2023-09-30T09:52:18;1.73;;;1.02;;
39750;SDS011;37579;51.074;17.004;2023-09-30T09:54:45;1.40;;;1.08;;
39750;SDS011;37579;51.074;17.004;2023-09-30T09:57:12;1.08;;;0.98;;
39750;SDS011;37579;51.074;17.004;2023-09-30T09:59:39;1.05;;;0.95;;
39750;SDS011;37579;51.074;17.004;2023-09-30T10:02:09;1.17;;;1.00;;
39750;SDS011;37579;51.074;17.004;2023-09-30T10:04:37;1.20;;;1.00;;
39750;SDS011;37579;51.074;17.004;2023-09-30T10:07:03;1.10;;;0.88;;
39750;SDS011;37579;51.074;17.004;2023-09-30T10:09:31;1.30;;;1.20;;
39750;SDS011;37579;51.074;17.004;2023-09-30T10:12:00;1.17;;;1.00;;
39750;SDS011;37579;51.074;17.004;2023-09-30T10:14:30;1.33;;;1.20;;
39750;SDS011;37579;51.074;17.004;2023-09-30T10:16:57;1.33;;;0.98;;
39750;SDS011;37579;51.074;17.004;2023-09-30T10:19:23;1.20;;;1.08;;
39750;SDS011;37579;51.074;17.004;2023-09-30T10:24:50;1.25;;;1.10;;
39750;SDS011;37579;51.074;17.004;2023-09-30T10:29:59;1.73;;;0.93;;
39750;SDS011;37579;51.074;17.004;2023-09-30T10:36:03;1.10;;;1.00;;
39750;SDS011;37579;51.074;17.004;2023-09-30T10:40:49;1.13;;;0.93;;
39750;SDS011;37579;51.074;17.004;2023-09-30T10:43:31;1.23;;;0.95;;
39750;SDS011;37579;51.074;17.004;2023-09-30T10:46:29;1.90;;;1.00;;
39750;SDS011;37579;51.074;17.004;2023-09-30T10:48:51;1.10;;;1.00;;
39750;SDS011;37579;51.074;17.004;2023-09-30T10:51:18;1.23;;;0.90;;
39750;SDS011;37579;51.074;17.004;2023-09-30T10:53:47;1.33;;;0.93;;
39750;SDS011;37579;51.074;17.004;2023-09-30T10:56:18;1.48;;;0.90;;
39750;SDS011;37579;51.074;17.004;2023-09-30T11:01:13;1.23;;;1.13;;
39750;SDS011;37579;51.074;17.004;2023-09-30T11:03:41;1.83;;;0.80;;
39750;SDS011;37579;51.074;17.004;2023-09-30T11:06:07;0.98;;;0.85;;
39750;SDS011;37579;51.074;17.004;2023-09-30T11:08:38;1.00;;;0.90;;
39750;SDS011;37579;51.074;17.004;2023-09-30T11:11:10;1.25;;;0.90;;
39750;SDS011;37579;51.074;17.004;2023-09-30T11:13:36;1.17;;;1.00;;
39750;SDS011;37579;51.074;17.004;2023-09-30T11:16:02;1.30;;;0.90;;
39750;SDS011;37579;51.074;17.004;2023-09-30T11:18:32;1.17;;;0.98;;
39750;SDS011;37579;51.074;17.004;2023-09-30T11:21:08;1.30;;;1.20;;
39750;SDS011;37579;51.074;17.004;2023-09-30T11:23:38;1.00;;;0.90;;
39750;SDS011;37579;51.074;17.004;2023-09-30T11:26:06;1.13;;;0.90;;
39750;SDS011;37579;51.074;17.004;2023-09-30T11:28:38;1.20;;;0.88;;
39750;SDS011;37579;51.074;17.004;2023-09-30T11:31:07;1.30;;;0.93;;
39750;SDS011;37579;51.074;17.004;2023-09-30T11:33:48;1.25;;;0.98;;
39750;SDS011;37579;51.074;17.004;2023-09-30T11:38:48;0.80;;;0.80;;
39750;SDS011;37579;51.074;17.004;2023-09-30T11:41:15;1.40;;;1.10;;
39750;SDS011;37579;51.074;17.004;2023-09-30T11:46:55;1.05;;;0.73;;
39750;SDS011;37579;51.074;17.004;2023-09-30T11:49:34;1.42;;;0.95;;
39750;SDS011;37579;51.074;17.004;2023-09-30T11:52:04;1.33;;;0.90;;
39750;SDS011;37579;51.074;17.004;2023-09-30T11:54:35;1.38;;;0.88;;
39750;SDS011;37579;51.074;17.004;2023-09-30T11:57:04;1.65;;;0.90;;
39750;SDS011;37579;51.074;17.004;2023-09-30T11:59:30;1.20;;;1.00;;
39750;SDS011;37579;51.074;17.004;2023-09-30T12:01:57;1.10;;;1.00;;
39750;SDS011;37579;51.074;17.004;2023-09-30T12:04:24;1.20;;;1.00;;
39750;SDS011;37579;51.074;17.004;2023-09-30T12:06:50;1.20;;;0.90;;
39750;SDS011;37579;51.074;17.004;2023-09-30T12:09:16;1.15;;;0.80;;
39750;SDS011;37579;51.074;17.004;2023-09-30T12:11:48;1.08;;;0.98;;
39750;SDS011;37579;51.074;17.004;2023-09-30T12:14:14;0.85;;;0.80;;
39750;SDS011;37579;51.074;17.004;2023-09-30T12:16:40;1.88;;;1.05;;
39750;SDS011;37579;51.074;17.004;2023-09-30T12:19:06;1.67;;;1.15;;
39750;SDS011;37579;51.074;17.004;2023-09-30T12:21:33;1.38;;;0.88;;
39750;SDS011;37579;51.074;17.004;2023-09-30T12:24:00;1.45;;;0.80;;
39750;SDS011;37579;51.074;17.004;2023-09-30T12:26:28;1.20;;;0.93;;
39750;SDS011;37579;51.074;17.004;2023-09-30T12:28:55;1.15;;;0.70;;
39750;SDS011;37579;51.074;17.004;2023-09-30T12:31:22;1.70;;;0.90;;
39750;SDS011;37579;51.074;17.004;2023-09-30T12:33:48;1.23;;;0.85;;
39750;SDS011;37579;51.074;17.004;2023-09-30T12:36:16;1.40;;;0.90;;
39750;SDS011;37579;51.074;17.004;2023-09-30T12:38:46;0.90;;;0.70;;
39750;SDS011;37579;51.074;17.004;2023-09-30T12:41:12;1.05;;;0.80;;
39750;SDS011;37579;51.074;17.004;2023-09-30T12:43:40;0.88;;;0.75;;
39750;SDS011;37579;51.074;17.004;2023-09-30T12:46:09;1.52;;;1.00;;
39750;SDS011;37579;51.074;17.004;2023-09-30T12:48:38;1.10;;;0.90;;
39750;SDS011;37579;51.074;17.004;2023-09-30T12:51:04;1.10;;;0.80;;
39750;SDS011;37579;51.074;17.004;2023-09-30T12:53:32;1.40;;;1.00;;
39750;SDS011;37579;51.074;17.004;2023-09-30T12:55:59;1.20;;;0.90;;
39750;SDS011;37579;51.074;17.004;2023-09-30T12:58:25;1.08;;;0.95;;
39750;SDS011;37579;51.074;17.004;2023-09-30T13:00:54;0.88;;;0.80;;
39750;SDS011;37579;51.074;17.004;2023-09-30T13:03:20;1.15;;;0.93;;
39750;SDS011;37579;51.074;17.004;2023-09-30T13:05:46;0.90;;;0.80;;
39750;SDS011;37579;51.074;17.004;2023-09-30T13:08:12;1.10;;;1.00;;
39750;SDS011;37579;51.074;17.004;2023-09-30T13:10:38;1.23;;;0.75;;
39750;SDS011;37579;51.074;17.004;2023-09-30T13:13:03;1.90;;;0.90;;
39750;SDS011;37579;51.074;17.004;2023-09-30T13:15:30;1.65;;;0.70;;
39750;SDS011;37579;51.074;17.004;2023-09-30T13:17:56;1.00;;;0.77;;
39750;SDS011;37579;51.074;17.004;2023-09-30T13:20:21;1.13;;;0.90;;
39750;SDS011;37579;51.074;17.004;2023-09-30T13:22:47;1.05;;;0.90;;
39750;SDS011;37579;51.074;17.004;2023-09-30T13:25:13;1.30;;;0.80;;
39750;SDS011;37579;51.074;17.004;2023-09-30T13:27:41;1.02;;;0.80;;
39750;SDS011;37579;51.074;17.004;2023-09-30T13:30:08;1.05;;;0.60;;
39750;SDS011;37579;51.074;17.004;2023-09-30T13:32:35;1.38;;;0.82;;
39750;SDS011;37579;51.074;17.004;2023-09-30T13:35:04;1.38;;;1.00;;
39750;SDS011;37579;51.074;17.004;2023-09-30T13:37:30;1.10;;;0.80;;
39750;SDS011;37579;51.074;17.004;2023-09-30T13:40:02;1.23;;;0.80;;
39750;SDS011;37579;51.074;17.004;2023-09-30T13:42:29;1.38;;;0.80;;
39750;SDS011;37579;51.074;17.004;2023-09-30T13:44:56;1.02;;;0.60;;
39750;SDS011;37579;51.074;17.004;2023-09-30T13:47:25;0.88;;;0.70;;
39750;SDS011;37579;51.074;17.004;2023-09-30T13:49:51;1.35;;;0.82;;
39750;SDS011;37579;51.074;17.004;2023-09-30T13:52:17;1.25;;;0.80;;
39750;SDS011;37579;51.074;17.004;2023-09-30T13:54:43;1.10;;;0.68;;
39750;SDS011;37579;51.074;17.004;2023-09-30T13:57:09;1.27;;;0.80;;
39750;SDS011;37579;51.074;17.004;2023-09-30T13:59:35;0.77;;;0.70;;
39750;SDS011;37579;51.074;17.004;2023-09-30T14:02:04;1.23;;;0.93;;
39750;SDS011;37579;51.074;17.004;2023-09-30T14:04:30;0.77;;;0.70;;
39750;SDS011;37579;51.074;17.004;2023-09-30T14:07:02;1.05;;;0.80;;
39750;SDS011;37579;51.074;17.004;2023-09-30T14:09:28;1.52;;;0.90;;
39750;SDS011;37579;51.074;17.004;2023-09-30T14:11:54;1.33;;;0.70;;
39750;SDS011;37579;51.074;17.004;2023-09-30T14:14:20;1.10;;;0.70;;
39750;SDS011;37579;51.074;17.004;2023-09-30T14:16:46;1.30;;;0.75;;
39750;SDS011;37579;51.074;17.004;2023-09-30T14:19:12;1.00;;;0.80;;
39750;SDS011;37579;51.074;17.004;2023-09-30T14:21:39;1.50;;;0.80;;
39750;SDS011;37579;51.074;17.004;2023-09-30T14:24:05;0.85;;;0.70;;
39750;SDS011;37579;51.074;17.004;2023-09-30T14:26:32;1.00;;;0.88;;
39750;SDS011;37579;51.074;17.004;2023-09-30T14:28:58;2.03;;;0.90;;
39750;SDS011;37579;51.074;17.004;2023-09-30T14:31:24;1.20;;;0.80;;
39750;SDS011;37579;51.074;17.004;2023-09-30T14:33:50;1.13;;;0.88;;
39750;SDS011;37579;51.074;17.004;2023-09-30T14:36:16;1.15;;;0.90;;
39750;SDS011;37579;51.074;17.004;2023-09-30T14:38:43;1.20;;;0.90;;
39750;SDS011;37579;51.074;17.004;2023-09-30T14:41:12;1.20;;;0.85;;
39750;SDS011;37579;51.074;17.004;2023-09-30T14:43:38;1.15;;;0.90;;
39750;SDS011;37579;51.074;17.004;2023-09-30T14:46:04;0.85;;;0.63;;
39750;SDS011;37579;51.074;17.004;2023-09-30T14:48:30;1.02;;;0.70;;
39750;SDS011;37579;51.074;17.004;2023-09-30T14:50:56;1.00;;;0.80;;
39750;SDS011;37579;51.074;17.004;2023-09-30T14:53:25;1.10;;;0.77;;
39750;SDS011;37579;51.074;17.004;2023-09-30T14:55:51;1.10;;;0.73;;
39750;SDS011;37579;51.074;17.004;2023-09-30T14:58:17;0.85;;;0.65;;
39750;SDS011;37579;51.074;17.004;2023-09-30T15:00:43;1.17;;;0.75;;
39750;SDS011;37579;51.074;17.004;2023-09-30T15:03:09;1.40;;;1.00;;